Map

Track Data

SID SEASON NUMBER BASIN SUBBASIN NAME ISO_TIME NATURE LAT LON WMO_WIND WMO_PRES WMO_AGENCY TRACK_TYPE DIST2LAND LANDFALL IFLAG USA_AGENCY USA_ATCF_ID USA_LAT USA_LON USA_RECORD USA_STATUS USA_WIND USA_PRES USA_SSHS USA_R34_NE USA_R34_SE USA_R34_SW USA_R34_NW USA_R50_NE USA_R50_SE USA_R50_SW USA_R50_NW USA_R64_NE USA_R64_SE USA_R64_SW USA_R64_NW USA_POCI USA_ROCI USA_RMW USA_EYE TOKYO_LAT TOKYO_LON TOKYO_GRADE TOKYO_WIND TOKYO_PRES TOKYO_R50_DIR TOKYO_R50_LONG TOKYO_R50_SHORT TOKYO_R30_DIR TOKYO_R30_LONG TOKYO_R30_SHORT TOKYO_LAND CMA_LAT CMA_LON CMA_CAT CMA_WIND CMA_PRES HKO_LAT HKO_LON HKO_CAT HKO_WIND HKO_PRES NEWDELHI_LAT NEWDELHI_LON NEWDELHI_GRADE NEWDELHI_WIND NEWDELHI_PRES NEWDELHI_CI NEWDELHI_DP NEWDELHI_POCI REUNION_LAT REUNION_LON REUNION_TYPE REUNION_WIND REUNION_PRES REUNION_TNUM REUNION_CI REUNION_RMW REUNION_R34_NE REUNION_R34_SE REUNION_R34_SW REUNION_R34_NW REUNION_R50_NE REUNION_R50_SE REUNION_R50_SW REUNION_R50_NW REUNION_R64_NE REUNION_R64_SE REUNION_R64_SW REUNION_R64_NW BOM_LAT BOM_LON BOM_TYPE BOM_WIND BOM_PRES BOM_TNUM BOM_CI BOM_RMW BOM_R34_NE BOM_R34_SE BOM_R34_SW BOM_R34_NW BOM_R50_NE BOM_R50_SE BOM_R50_SW BOM_R50_NW BOM_R64_NE BOM_R64_SE BOM_R64_SW BOM_R64_NW BOM_ROCI BOM_POCI BOM_EYE BOM_POS_METHOD BOM_PRES_METHOD NADI_LAT NADI_LON NADI_CAT NADI_WIND NADI_PRES WELLINGTON_LAT WELLINGTON_LON WELLINGTON_WIND WELLINGTON_PRES DS824_LAT DS824_LON DS824_STAGE DS824_WIND DS824_PRES TD9636_LAT TD9636_LON TD9636_STAGE TD9636_WIND TD9636_PRES TD9635_LAT TD9635_LON TD9635_WIND TD9635_PRES TD9635_ROCI NEUMANN_LAT NEUMANN_LON NEUMANN_CLASS NEUMANN_WIND NEUMANN_PRES MLC_LAT MLC_LON MLC_CLASS MLC_WIND MLC_PRES USA_GUST BOM_GUST BOM_GUST_PER REUNION_GUST REUNION_GUST_PER USA_SEAHGT USA_SEARAD_NE USA_SEARAD_SE USA_SEARAD_SW USA_SEARAD_NW STORM_SPEED STORM_DIR
1895211N21088 1895 21 NI BB NOT_NAMED 1895-07-30 00:00:00 TS 20.6000 87.6000 main 63 41 _________O____ -1 20.6000 87.6000 TC 30 4 302
1895211N21088 1895 21 NI BB NOT_NAMED 1895-07-30 03:00:00 TS 20.7018 87.4268 main 41 20 _________PO___ -1 20.7527 87.3402 TC 30 20.6000 87.6000 1 4 304
1895211N21088 1895 21 NI BB NOT_NAMED 1895-07-30 06:00:00 TS 20.8393 87.2238 main 20 15 _________OP___ -1 20.9000 87.1000 TC 30 20.7481 87.4095 1 5 306
1895211N21088 1895 21 NI BB NOT_NAMED 1895-07-30 09:00:00 TS 20.9800 87.0149 main 15 0 _________PP___ -1 21.0423 86.8798 TC 30 20.8970 87.1951 1 5 304
1895211N21088 1895 21 NI BB NOT_NAMED 1895-07-30 12:00:00 TS 21.1237 86.7666 main 0 0 _________OP___ -1 21.2000 86.6000 TC 30 21.0474 86.9332 1 7 299
1895211N21088 1895 21 NI BB NOT_NAMED 1895-07-30 15:00:00 TS 21.3000 86.3938 main 0 0 _________PO___ -1 21.4000 86.1876 TC 30 21.2000 86.6000 1 8 295
1895211N21088 1895 21 NI BB NOT_NAMED 1895-07-30 18:00:00 TS 21.4781 85.9407 main 0 0 _________OP___ -1 21.6000 85.7000 TC 30 21.3561 86.1814 1 9 291
1895211N21088 1895 21 NI BB NOT_NAMED 1895-07-30 21:00:00 TS 21.6316 85.4510 main 0 0 _________PP___ -1 21.7425 85.1997 TC 30 21.5207 85.7022 1 10 289
1895211N21088 1895 21 NI BB NOT_NAMED 1895-07-31 00:00:00 TS 21.7999 84.9485 main 0 0 _________OP___ -1 21.9000 84.7000 TC 30 21.6998 85.1969 1 10 293
1895211N21088 1895 21 NI BB NOT_NAMED 1895-07-31 03:00:00 TS 22.0174 84.4675 main 0 0 _________PO___ -1 22.1349 84.2350 TC 30 21.9000 84.7000 1 10 298
1895211N21088 1895 21 NI BB NOT_NAMED 1895-07-31 06:00:00 TS 22.2642 84.0182 main 0 0 _________OP___ -1 22.4000 83.8000 TC 30 22.1283 84.2364 1 10 301
1895211N21088 1895 21 NI BB NOT_NAMED 1895-07-31 09:00:00 TS 22.5137 83.5838 main 0 0 _________PP___ -1 22.6499 83.3774 TC 30 22.3774 83.7902 1 9 303
1895211N21088 1895 21 NI BB NOT_NAMED 1895-07-31 12:00:00 TS 22.7689 83.1869 main 0 0 _________OP___ -1 22.9000 83.0000 TC 30 22.6378 83.3739 1 9 307
1895211N21088 1895 21 NI BB NOT_NAMED 1895-07-31 15:00:00 TS 23.0249 82.8387 main 0 0 _________PO___ -1 23.1499 82.6774 TC 30 22.9000 83.0000 1 8 310
1895211N21088 1895 21 NI BB NOT_NAMED 1895-07-31 18:00:00 TS 23.2727 82.5366 main 0 0 _________OP___ -1 23.4000 82.4000 TC 30 23.1454 82.6731 1 7 313
1895211N21088 1895 21 NI BB NOT_NAMED 1895-07-31 21:00:00 TS 23.5209 82.2658 main 0 0 _________PP___ -1 23.6499 82.1424 TC 30 23.3919 82.3892 1 7 316
1895211N21088 1895 21 NI BB NOT_NAMED 1895-08-01 00:00:00 TS 23.7712 82.0179 main 0 0 _________OP___ -1 23.9000 81.9000 TC 30 23.6424 82.1357 1 7 318
1895211N21088 1895 21 NI BB NOT_NAMED 1895-08-01 03:00:00 TS 24.0212 81.7712 main 0 0 _________PO___ -1 24.1425 81.6424 TC 30 23.9000 81.9000 1 7 319
1895211N21088 1895 21 NI BB NOT_NAMED 1895-08-01 06:00:00 TS 24.2859 81.5262 main 0 0 _________OP___ -1 24.4000 81.4000 TC 30 24.1717 81.6523 1 7 323
1895211N21088 1895 21 NI BB NOT_NAMED 1895-08-01 09:00:00 TS 24.5749 81.3061 main 0 0 _________PP___ -1 24.6999 81.1924 TC 30 24.4498 81.4198 1 7 326
1895211N21088 1895 21 NI BB NOT_NAMED 1895-08-01 12:00:00 TS 24.8640 81.1012 main 0 0 _________OP___ -1 25.0000 81.0000 TC 30 24.7280 81.2024 1 7 326
1895211N21088 1895 21 NI BB NOT_NAMED 1895-08-01 15:00:00 TS 25.1287 80.8962 main 0 0 _________PO___ -1 25.2575 80.7924 TC 30 25.0000 81.0000 1 6 325
1895211N21088 1895 21 NI BB NOT_NAMED 1895-08-01 18:00:00 TS 25.3634 80.7212 main 0 0 _________OP___ -1 25.5000 80.6000 TC 30 25.2610 80.8121 1 6 327
1895211N21088 1895 21 NI BB NOT_NAMED 1895-08-01 21:00:00 TS 25.6066 80.5573 main 0 0 _________PP___ -1 25.7475 80.4401 TC 30 25.5126 80.6354 1 6 330
1895211N21088 1895 21 NI BB NOT_NAMED 1895-08-02 00:00:00 TS 25.8386 80.4107 main 0 0 _________OP___ -1 26.0000 80.3000 TC 30 25.7579 80.4660 1 5 330
1895211N21088 1895 21 NI BB NOT_NAMED 1895-08-02 03:00:00 NR 26.0000 80.3000 main 0 __________O___ -1 TC 26.0000 80.3000 1 4 328

About IBTrACS Database

This database is a web-friendly format of International Best Track Archive for Climate Stewardship (IBTrACS), a global best track data archive curated by NOAA dating back to 1842.

Updated: 2021-10-19